Time;durP1;ratioP1;P1;durP2;ratioP2;P2;SDS_P1;SDS_P2;PMS_P1;PMS_P2;Temp;Humidity;BMP_temperature;BMP_pressure;BME280_temperature;BME280_humidity;BME280_pressure;Samples;Min_cycle;Max_cycle;Signal;HPM_P1;HPM_P2
2022/10/11 00:02:10;;;;;;;41.98;23.20;;;;;;;6.48;100.00;98464.08;1771094;81;21083;-85
2022/10/11 00:04:36;;;;;;;44.10;22.40;;;;;;;6.49;100.00;98458.47;1750799;81;20874;-85
2022/10/11 00:07:02;;;;;;;34.15;21.00;;;;;;;6.52;100.00;98461.73;1771039;81;20909;-85
2022/10/11 00:09:28;;;;;;;39.27;21.37;;;;;;;6.52;100.00;98460.39;1750350;82;20972;-83
2022/10/11 00:11:55;;;;;;;34.00;19.95;;;;;;;6.52;100.00;98463.08;1743057;81;21053;-84
2022/10/11 00:14:22;;;;;;;39.35;21.40;;;;;;;6.50;100.00;98468.18;1770799;81;21023;-85
2022/10/11 00:16:48;;;;;;;41.77;23.35;;;;;;;6.53;100.00;98470.09;1771028;81;21019;-86
2022/10/11 00:19:14;;;;;;;36.40;21.55;;;;;;;6.54;100.00;98471.19;1750282;82;20980;-83
2022/10/11 00:21:40;;;;;;;46.33;25.00;;;;;;;6.54;100.00;98472.54;1770907;81;21111;-84
2022/10/11 00:24:07;;;;;;;38.85;23.38;;;;;;;6.55;100.00;98470.13;1770945;81;20873;-83
2022/10/11 00:26:33;;;;;;;36.33;22.48;;;;;;;6.54;100.00;98471.19;1722813;82;21298;-86
2022/10/11 00:28:59;;;;;;;39.10;22.75;;;;;;;6.55;100.00;98474.70;1770695;81;21677;-83
2022/10/11 00:31:24;;;;;;;41.18;22.87;;;;;;;6.51;100.00;98467.65;1750253;82;20897;-84
2022/10/11 00:33:52;;;;;;;47.03;23.50;;;;;;;6.51;100.00;98467.65;1771019;81;21007;-86
2022/10/11 00:36:18;;;;;;;42.67;24.70;;;;;;;6.48;100.00;98472.16;1771081;81;21547;-83
2022/10/11 00:38:44;;;;;;;36.73;21.02;;;;;;;6.47;100.00;98476.72;1770928;81;21701;-86
2022/10/11 00:41:10;;;;;;;37.35;22.65;;;;;;;6.50;100.00;98472.75;1770902;81;20933;-83
2022/10/11 00:43:36;;;;;;;34.15;20.23;;;;;;;6.50;100.00;98477.60;1770958;81;21151;-83
2022/10/11 00:46:20;;;;;;;40.55;22.32;;;;;;;6.50;100.00;98472.22;1771015;81;20956;-86
2022/10/11 00:48:49;;;;;;;37.63;22.25;;;;;;;6.54;100.00;98468.50;1771066;81;21039;-85
2022/10/11 00:51:44;;;;;;;40.65;21.40;;;;;;;6.56;100.00;98473.11;1770926;81;21862;-85
2022/10/11 00:54:12;;;;;;;40.15;22.25;;;;;;;6.57;100.00;98469.35;1770833;81;21028;-84
2022/10/11 00:56:38;;;;;;;38.98;21.30;;;;;;;6.61;100.00;98469.70;1750963;82;21466;-87
2022/10/11 00:59:09;;;;;;;30.52;17.62;;;;;;;6.64;100.00;98475.41;1770973;81;20905;-86
2022/10/11 01:01:35;;;;;;;29.85;17.00;;;;;;;6.69;100.00;98470.65;1750450;82;21060;-84
2022/10/11 01:04:01;;;;;;;29.00;17.62;;;;;;;6.76;100.00;98475.35;1767928;81;21157;-85
2022/10/11 01:06:27;;;;;;;32.13;18.85;;;;;;;6.78;100.00;98467.84;1768698;81;20932;-85
2022/10/11 01:08:53;;;;;;;35.75;18.98;;;;;;;6.80;100.00;98473.79;1768844;81;20996;-85
2022/10/11 01:11:22;;;;;;;32.90;18.45;;;;;;;6.80;100.00;98477.83;1745701;82;21322;-85
2022/10/11 01:14:19;;;;;;;32.10;19.02;;;;;;;6.76;100.00;98470.78;1768434;81;21008;-83
2022/10/11 01:17:02;;;;;;;37.48;19.35;;;;;;;6.76;100.00;98476.17;1767671;81;21336;-83
2022/10/11 01:20:13;;;;;;;31.00;18.02;;;;;;;6.76;100.00;98481.55;1758511;81;21002;-86
2022/10/11 01:23:22;;;;;;;32.05;18.35;;;;;;;6.75;100.00;98481.27;1767588;81;20999;-85
2022/10/11 01:26:34;;;;;;;35.08;21.10;;;;;;;6.74;100.00;98486.34;1698135;81;22133;-85
2022/10/11 01:29:14;;;;;;;32.20;18.70;;;;;;;6.73;100.00;98478.52;1767448;81;21443;-83
2022/10/11 01:31:57;;;;;;;33.73;19.82;;;;;;;6.72;100.00;98474.19;1767336;81;21458;-83
2022/10/11 01:34:39;;;;;;;37.63;18.10;;;;;;;6.70;100.00;98473.62;1767268;81;21419;-84
2022/10/11 01:37:28;;;;;;;30.50;17.90;;;;;;;6.71;100.00;98469.87;1745562;81;21033;-84
2022/10/11 01:40:05;;;;;;;28.70;17.15;;;;;;;6.67;100.00;98473.59;1767084;81;20987;-85
2022/10/11 01:42:31;;;;;;;28.10;19.20;;;;;;;6.69;100.00;98478.73;1740471;81;21459;-86
2022/10/11 01:44:57;;;;;;;33.88;20.50;;;;;;;6.67;100.00;98475.47;1767494;81;21146;-86
2022/10/11 01:47:23;;;;;;;30.27;16.42;;;;;;;6.67;100.00;98477.63;1767531;81;21458;-85
2022/10/11 01:49:56;;;;;;;31.25;17.17;;;;;;;6.66;100.00;98474.63;1767608;81;21553;-85
2022/10/11 01:52:22;;;;;;;31.55;16.52;;;;;;;6.66;100.00;98468.42;1766490;81;21580;-83
2022/10/11 01:55:23;;;;;;;27.77;16.50;;;;;;;6.65;100.00;98476.22;1767756;81;20990;-86
2022/10/11 01:58:04;;;;;;;29.72;16.20;;;;;;;6.68;100.00;98479.80;1767475;81;21910;-83
2022/10/11 02:01:09;;;;;;;28.25;16.95;;;;;;;6.70;100.00;98477.13;1749886;81;21002;-84
2022/10/11 02:03:43;;;;;;;32.20;18.95;;;;;;;6.70;100.00;98481.70;1763280;81;21066;-85
2022/10/11 02:06:24;;;;;;;26.97;16.07;;;;;;;6.72;100.00;98484.44;1768083;81;21027;-83
2022/10/11 02:09:25;;;;;;;26.65;15.85;;;;;;;6.75;100.00;98480.42;1780079;80;20992;-86
2022/10/11 02:11:52;;;;;;;27.45;16.07;;;;;;;6.71;100.00;98484.68;1749026;82;21033;-85
2022/10/11 02:14:21;;;;;;;29.25;17.15;;;;;;;6.71;100.00;98487.38;1760850;81;21048;-85
2022/10/11 02:16:55;;;;;;;;;;;;;;;6.74;100.00;98488.22;1763830;81;21011;-86
2022/10/11 02:19:26;;;;;;;24.65;14.95;;;;;;;6.69;100.00;98486.27;1760486;81;20201;-83
2022/10/11 02:21:56;;;;;;;31.27;17.48;;;;;;;6.65;100.00;98489.69;1761082;81;21030;-84
2022/10/11 02:24:31;;;;;;;41.45;20.90;;;;;;;6.64;100.00;98498.83;1731147;81;21226;-86
2022/10/11 02:26:57;;;;;;;30.23;18.07;;;;;;;6.60;100.00;98490.96;1731129;81;21495;-85
2022/10/11 02:29:25;;;;;;;31.17;18.62;;;;;;;6.59;100.00;98493.37;1730943;81;21062;-84
2022/10/11 02:31:51;;;;;;;27.05;15.95;;;;;;;6.55;100.00;98491.67;1761008;81;21086;-83
2022/10/11 02:34:21;;;;;;;26.20;15.85;;;;;;;6.53;100.00;98495.14;1761138;81;21256;-85
2022/10/11 02:37:09;;;;;;;24.02;14.20;;;;;;;6.52;100.00;98488.66;1761066;81;21469;-84
2022/10/11 02:39:42;;;;;;;26.33;16.60;;;;;;;6.48;100.00;98489.12;1761208;81;21090;-85
2022/10/11 02:42:18;;;;;;;26.33;16.70;;;;;;;6.46;100.00;98496.62;1760997;81;21183;-85
2022/10/11 02:44:48;;;;;;;26.48;15.03;;;;;;;6.46;100.00;98485.86;1760868;81;21050;-85
2022/10/11 02:47:14;;;;;;;34.50;19.40;;;;;;;6.46;100.00;98481.82;1730960;81;21626;-83
2022/10/11 02:49:40;;;;;;;29.15;16.90;;;;;;;6.49;100.00;98485.89;1761453;81;21061;-86
2022/10/11 02:52:05;;;;;;;34.03;16.00;;;;;;;6.48;100.00;98490.47;1761129;81;21605;-84
2022/10/11 02:54:31;;;;;;;27.30;16.87;;;;;;;6.50;100.00;98498.33;1761225;81;20916;-84
2022/10/11 02:56:58;;;;;;;25.30;16.10;;;;;;;6.50;100.00;98500.49;1761082;81;21031;-84
2022/10/11 02:59:24;;;;;;;26.82;15.15;;;;;;;6.51;100.00;98495.92;1761463;81;20904;-86
2022/10/11 03:01:49;;;;;;;25.50;15.48;;;;;;;6.54;100.00;98506.20;1761346;81;20935;-84
2022/10/11 03:04:15;;;;;;;31.25;17.35;;;;;;;6.55;100.00;98497.59;1752791;81;21540;-85
2022/10/11 03:06:41;;;;;;;27.50;16.95;;;;;;;6.53;100.00;98502.41;1745688;82;20897;-83
2022/10/11 03:09:07;;;;;;;31.30;16.80;;;;;;;6.51;100.00;98506.69;1767762;81;21503;-83
2022/10/11 03:11:33;;;;;;;22.80;15.43;;;;;;;6.54;100.00;98505.38;1768399;81;20873;-86
2022/10/11 03:13:59;;;;;;;22.80;14.78;;;;;;;6.55;100.00;98507.83;1768432;81;21173;-83
2022/10/11 03:16:25;;;;;;;22.95;15.23;;;;;;;6.57;100.00;98507.58;1745678;82;20854;-84
2022/10/11 03:18:51;;;;;;;30.90;17.32;;;;;;;6.59;100.00;98506.83;1768561;81;21028;-86
2022/10/11 03:21:17;;;;;;;32.45;16.85;;;;;;;6.60;100.00;98511.16;1745732;82;20921;-85
2022/10/11 03:23:43;;;;;;;30.57;16.80;;;;;;;6.63;100.00;98506.09;1768526;81;21051;-84
2022/10/11 03:26:09;;;;;;;21.80;14.05;;;;;;;6.67;100.00;98512.64;1745598;82;21422;-86
2022/10/11 03:28:35;;;;;;;24.37;14.43;;;;;;;6.71;100.00;98508.39;1768365;81;21008;-83
2022/10/11 03:31:01;;;;;;;32.63;16.42;;;;;;;6.73;100.00;98503.56;1745859;82;20910;-84
2022/10/11 03:33:27;;;;;;;28.17;15.28;;;;;;;6.77;100.00;98507.42;1768618;81;20928;-83
2022/10/11 03:35:53;;;;;;;30.05;17.17;;;;;;;6.81;100.00;98510.97;1768608;81;20857;-85
2022/10/11 03:38:20;;;;;;;29.85;16.37;;;;;;;6.84;100.00;98513.20;1745602;82;21107;-84
2022/10/11 03:40:46;;;;;;;25.02;16.05;;;;;;;6.83;100.00;98512.88;1768631;81;22112;-85
2022/10/11 03:43:12;;;;;;;26.05;16.60;;;;;;;6.84;100.00;98511.85;1745675;82;20889;-84
2022/10/11 03:45:41;;;;;;;26.12;15.68;;;;;;;6.82;100.00;98504.52;1768654;81;20940;-84
2022/10/11 03:48:06;;;;;;;30.40;16.55;;;;;;;6.80;100.00;98511.50;1768462;81;21401;-85
2022/10/11 03:50:32;;;;;;;21.27;14.53;;;;;;;6.79;100.00;98515.26;1768915;81;21881;-85
2022/10/11 03:52:58;;;;;;;28.75;15.72;;;;;;;6.81;100.00;98515.83;1780065;80;20943;-84
2022/10/11 03:55:24;;;;;;;23.22;14.38;;;;;;;6.81;100.00;98516.36;1759976;81;20924;-83
2022/10/11 03:57:49;;;;;;;25.12;14.65;;;;;;;6.83;100.00;98515.05;1761154;81;20876;-83
2022/10/11 04:00:16;;;;;;;26.97;13.62;;;;;;;6.84;100.00;98526.14;1761194;81;20971;-84
2022/10/11 04:02:41;;;;;;;19.00;12.43;;;;;;;6.83;100.00;98523.13;1761282;81;21166;-84
2022/10/11 04:05:08;;;;;;;22.27;13.20;;;;;;;6.88;100.00;98526.45;1751790;81;20853;-86
2022/10/11 04:07:34;;;;;;;21.12;14.23;;;;;;;6.91;100.00;98517.88;1745542;82;21096;-85
2022/10/11 04:10:00;;;;;;;18.85;11.38;;;;;;;6.93;100.00;98519.81;1768677;81;21570;-84
2022/10/11 04:12:26;;;;;;;18.70;12.68;;;;;;;6.96;100.00;98518.78;1768338;81;20865;-85
2022/10/11 04:14:52;;;;;;;19.67;13.62;;;;;;;6.99;100.00;98530.41;1768697;81;21393;-86
2022/10/11 04:17:18;;;;;;;17.77;11.90;;;;;;;7.03;100.00;98524.84;1745663;82;21232;-84
2022/10/11 04:19:44;;;;;;;22.27;13.30;;;;;;;7.06;100.00;98522.17;1768757;81;21019;-84
2022/10/11 04:22:09;;;;;;;22.22;13.72;;;;;;;7.08;100.00;98520.86;1745663;82;20889;-86
2022/10/11 04:24:35;;;;;;;21.97;14.58;;;;;;;7.08;100.00;98529.48;1768792;81;20964;-86
2022/10/11 04:27:01;;;;;;;25.30;14.65;;;;;;;7.08;100.00;98529.48;1768690;81;21056;-84
2022/10/11 04:29:27;;;;;;;23.92;14.50;;;;;;;7.06;100.00;98528.38;1745752;82;20926;-83
2022/10/11 04:31:53;;;;;;;21.50;14.15;;;;;;;7.04;100.00;98534.55;1768618;81;20983;-85
2022/10/11 04:34:19;;;;;;;23.87;16.70;;;;;;;7.06;100.00;98535.12;1768403;81;20901;-85
2022/10/11 04:36:45;;;;;;;21.77;14.93;;;;;;;7.07;100.00;98535.94;1745882;82;20969;-83
2022/10/11 04:39:11;;;;;;;24.98;15.70;;;;;;;7.10;100.00;98540.03;1768420;81;21173;-84
2022/10/11 04:41:37;;;;;;;24.75;15.32;;;;;;;7.12;100.00;98537.91;1768490;81;21023;-85
2022/10/11 04:44:03;;;;;;;26.40;14.13;;;;;;;7.13;100.00;98539.53;1745602;82;20976;-85
2022/10/11 04:46:29;;;;;;;27.60;16.30;;;;;;;7.15;100.00;98542.27;1768667;81;21068;-84
2022/10/11 04:48:55;;;;;;;33.78;17.37;;;;;;;7.17;100.00;98549.56;1738158;81;21039;-84
2022/10/11 04:51:21;;;;;;;24.80;15.13;;;;;;;7.19;100.00;98546.66;1738015;81;21115;-83
2022/10/11 04:53:48;;;;;;;21.25;13.85;;;;;;;7.23;100.00;98547.78;1768556;81;20944;-83
2022/10/11 04:56:15;;;;;;;22.50;13.40;;;;;;;7.26;100.00;98549.47;1713721;81;21020;-85
2022/10/11 04:58:41;;;;;;;22.82;15.10;;;;;;;7.29;100.00;98544.93;1768436;81;21031;-84
2022/10/11 05:01:08;;;;;;;24.50;14.70;;;;;;;7.35;100.00;98549.34;1745881;82;20985;-85
2022/10/11 05:03:34;;;;;;;23.32;14.13;;;;;;;7.39;100.00;98549.66;1765602;81;21929;-84
2022/10/11 05:06:00;;;;;;;23.15;15.35;;;;;;;7.41;100.00;98545.37;1748760;81;21585;-83
2022/10/11 05:08:26;;;;;;;23.18;16.25;;;;;;;7.42;100.00;98547.81;1753405;81;20919;-83
2022/10/11 05:11:01;;;;;;;25.20;15.28;;;;;;;7.44;100.00;98555.15;1746196;81;20952;-84
2022/10/11 05:13:27;;;;;;;22.82;14.03;;;;;;;7.46;100.00;98553.55;1702874;82;20985;-86
2022/10/11 05:15:53;;;;;;;24.77;14.83;;;;;;;7.46;100.00;98556.24;1759988;81;21500;-84
2022/10/11 05:18:19;;;;;;;21.82;14.33;;;;;;;7.47;100.00;98558.69;1762736;81;20988;-83
2022/10/11 05:20:45;;;;;;;22.55;14.93;;;;;;;7.50;100.00;98565.45;1719571;81;20967;-86
2022/10/11 05:23:11;;;;;;;25.08;15.72;;;;;;;7.51;100.00;98565.73;1749232;79;21524;-84
2022/10/11 05:25:37;;;;;;;18.45;13.58;;;;;;;7.54;100.00;98566.62;1739838;81;21090;-86
2022/10/11 05:28:03;;;;;;;19.60;12.53;;;;;;;7.59;100.00;98566.14;1749816;82;21147;-86
2022/10/11 05:30:29;;;;;;;21.17;14.38;;;;;;;7.60;100.00;98567.77;1748132;81;21011;-86
2022/10/11 05:32:55;;;;;;;21.23;13.55;;;;;;;7.63;100.00;98578.62;1746161;81;20872;-84
2022/10/11 05:35:21;;;;;;;24.67;15.60;;;;;;;7.66;100.00;98575.95;1763000;79;20879;-83
2022/10/11 05:37:47;;;;;;;28.05;16.15;;;;;;;7.71;100.00;98586.30;1742632;80;20861;-86
2022/10/11 05:40:13;;;;;;;20.88;14.35;;;;;;;7.73;100.00;98588.73;1741755;81;21860;-83
2022/10/11 05:42:39;;;;;;;24.55;14.98;;;;;;;7.76;100.00;98585.53;1742177;81;20900;-86
2022/10/11 05:45:05;;;;;;;23.18;15.03;;;;;;;7.79;100.00;98587.76;1753320;80;20908;-84
2022/10/11 05:47:32;;;;;;;21.87;14.28;;;;;;;7.84;100.00;98592.67;1748525;79;21090;-84
2022/10/11 05:49:58;;;;;;;19.23;13.20;;;;;;;7.89;100.00;98590.06;1753046;80;21095;-86
2022/10/11 05:52:24;;;;;;;26.42;16.02;;;;;;;7.96;100.00;98593.94;1740976;81;21700;-84
2022/10/11 05:54:50;;;;;;;24.15;16.32;;;;;;;7.99;100.00;98602.06;1747905;81;21070;-86
2022/10/11 05:57:16;;;;;;;25.35;16.10;;;;;;;8.04;100.00;98604.84;1741254;80;20975;-86
2022/10/11 05:59:42;;;;;;;21.20;14.60;;;;;;;8.09;100.00;98608.41;1758487;80;21424;-85
2022/10/11 06:02:11;;;;;;;25.37;14.87;;;;;;;8.13;100.00;98605.52;1749579;80;22528;-86
2022/10/11 06:04:38;;;;;;;25.72;16.12;;;;;;;8.28;100.00;98616.22;1737943;81;21305;-85
2022/10/11 06:07:05;;;;;;;24.57;15.95;;;;;;;8.28;100.00;98616.22;1760277;80;21100;-84
2022/10/11 06:09:33;;;;;;;25.45;15.53;;;;;;;8.29;100.00;98610.59;1757001;80;21181;-86
2022/10/11 06:11:59;;;;;;;27.50;16.87;;;;;;;8.31;100.00;98618.43;1742583;81;21629;-83
2022/10/11 06:14:25;;;;;;;28.47;16.07;;;;;;;8.34;100.00;98617.92;1738922;80;21011;-86
2022/10/11 06:16:51;;;;;;;21.93;16.50;;;;;;;8.52;100.00;98631.14;1746452;81;21121;-85
2022/10/11 06:19:17;;;;;;;27.93;17.05;;;;;;;8.58;100.00;98624.74;1743352;81;20984;-86
2022/10/11 06:21:44;;;;;;;22.82;17.10;;;;;;;8.58;100.00;98624.74;1736872;81;20915;-86
2022/10/11 06:24:11;;;;;;;24.30;16.45;;;;;;;8.72;100.00;98628.70;1720035;81;21409;-83
2022/10/11 06:26:37;;;;;;;22.60;15.88;;;;;;;8.91;100.00;98644.05;1745892;81;21027;-86
2022/10/11 06:29:03;;;;;;;24.05;14.87;;;;;;;8.91;100.00;98644.05;1737281;81;21236;-83
2022/10/11 06:31:29;;;;;;;22.60;14.98;;;;;;;8.97;100.00;98651.66;1736511;81;20987;-84
2022/10/11 06:33:57;;;;;;;26.55;16.27;;;;;;;9.02;100.00;98642.26;1730412;80;21054;-83
2022/10/11 06:36:23;;;;;;;31.50;19.50;;;;;;;9.10;100.00;98642.34;1714574;80;21171;-84
2022/10/11 06:38:53;;;;;;;30.45;19.92;;;;;;;9.13;100.00;98649.93;1788222;80;21537;-86
2022/10/11 06:41:24;;;;;;;32.25;19.05;;;;;;;9.21;100.00;98660.29;1749531;81;21092;-86
2022/10/11 06:43:50;;;;;;;24.05;16.77;;;;;;;9.26;100.00;98657.65;1743982;80;22190;-86
2022/10/11 06:46:17;;;;;;;21.12;15.20;;;;;;;9.29;100.00;98657.13;1746044;81;21027;-86
2022/10/11 06:48:44;;;;;;;22.02;15.55;;;;;;;9.30;100.00;98660.92;1745975;81;21060;-86
2022/10/11 06:51:13;;;;;;;22.50;14.43;;;;;;;9.33;100.00;98663.67;1748561;81;21593;-86
2022/10/11 06:53:39;;;;;;;23.95;15.03;;;;;;;9.39;100.00;98658.57;1750561;81;21075;-86
2022/10/11 06:56:07;;;;;;;25.00;16.67;;;;;;;9.46;100.00;98664.59;1744021;80;21005;-84
2022/10/11 06:58:33;;;;;;;417.35;229.63;;;;;;;9.57;100.00;98670.40;1741611;80;21519;-84
2022/10/11 07:01:08;;;;;;;172.25;99.72;;;;;;;9.67;100.00;98671.55;1739329;80;22530;-84
2022/10/11 07:03:34;;;;;;;38.80;30.77;;;;;;;9.74;100.00;98667.56;1731921;81;21471;-85
2022/10/11 07:06:04;;;;;;;33.42;22.10;;;;;;;9.85;100.00;98674.68;1749898;81;21099;-86
2022/10/11 07:08:30;;;;;;;28.70;20.10;;;;;;;9.95;100.00;98673.94;1742836;81;21161;-86
2022/10/11 07:11:09;;;;;;;397.60;220.37;;;;;;;10.08;100.00;98671.30;1741354;80;21464;-85
2022/10/11 07:13:36;;;;;;;503.23;314.27;;;;;;;10.18;100.00;98676.28;1741151;80;21076;-84
2022/10/11 07:16:04;;;;;;;95.92;60.40;;;;;;;10.34;100.00;98674.52;1750446;80;21480;-86
2022/10/11 07:18:30;;;;;;;77.67;54.23;;;;;;;10.50;100.00;98678.09;1709422;81;21129;-84
2022/10/11 07:20:56;;;;;;;52.17;38.13;;;;;;;10.65;100.00;98679.53;1742412;80;21097;-86
2022/10/11 07:23:22;;;;;;;44.20;33.28;;;;;;;10.73;100.00;98685.81;1748861;80;21398;-86
2022/10/11 07:25:48;;;;;;;26.75;19.25;;;;;;;10.83;100.00;98691.00;1742676;80;21011;-86
2022/10/11 07:28:14;;;;;;;34.95;21.33;;;;;;;10.90;100.00;98691.57;1741219;80;21078;-84
2022/10/11 07:30:41;;;;;;;37.08;22.75;;;;;;;10.87;100.00;98694.82;1741848;80;20915;-85
2022/10/11 07:33:07;;;;;;;34.45;21.87;;;;;;;10.90;100.00;98694.28;1749581;80;21063;-86
2022/10/11 07:35:36;;;;;;;53.25;34.60;;;;;;;10.90;100.00;98698.34;1738248;80;21118;-86
2022/10/11 07:38:03;;;;;;;49.48;27.10;;;;;;;10.92;100.00;98698.34;1754735;80;21149;-86
2022/10/11 07:40:29;;;;;;;39.67;25.88;;;;;;;10.95;100.00;98703.80;1746191;80;21010;-84
2022/10/11 07:42:56;;;;;;;40.58;27.32;;;;;;;10.97;100.00;98711.94;1749655;80;21837;-86
2022/10/11 07:45:29;;;;;;;42.93;26.20;;;;;;;11.00;100.00;98708.69;1743892;80;21552;-84
2022/10/11 07:47:55;;;;;;;39.90;25.20;;;;;;;11.04;100.00;98710.34;1735730;80;21028;-86
2022/10/11 07:50:21;;;;;;;37.83;24.40;;;;;;;11.06;100.00;98710.89;1742126;81;21391;-86
2022/10/11 07:52:47;;;;;;;45.08;27.30;;;;;;;11.03;100.00;98714.14;1753402;80;20987;-86
2022/10/11 07:55:13;;;;;;;41.50;26.17;;;;;;;11.01;100.00;98714.92;1746539;80;21172;-84
2022/10/11 07:57:39;;;;;;;53.98;29.67;;;;;;;10.97;100.00;98719.27;1746112;81;21129;-84
2022/10/11 08:00:06;;;;;;;41.63;25.70;;;;;;;10.95;100.00;98715.47;1751446;80;20964;-87
2022/10/11 08:02:32;;;;;;;40.55;26.10;;;;;;;10.96;100.00;98723.88;1745665;81;21074;-86
2022/10/11 08:04:58;;;;;;;36.65;23.25;;;;;;;10.94;100.00;98733.36;1751721;80;20881;-84
2022/10/11 08:07:24;;;;;;;36.65;23.75;;;;;;;10.92;100.00;98740.38;1758343;80;21904;-84
2022/10/11 08:09:50;;;;;;;34.05;21.40;;;;;;;10.91;100.00;98745.53;1744778;81;20916;-85
2022/10/11 08:12:15;;;;;;;34.00;21.12;;;;;;;10.89;100.00;98748.23;1746178;81;21148;-86
2022/10/11 08:14:41;;;;;;;45.60;27.95;;;;;;;10.91;100.00;98752.31;1743265;80;20876;-84
2022/10/11 08:17:07;;;;;;;42.25;24.47;;;;;;;10.92;100.00;98740.38;1749620;81;20928;-84
2022/10/11 08:19:33;;;;;;;52.62;29.32;;;;;;;10.95;100.00;98739.88;1743013;80;21136;-86
2022/10/11 08:22:00;;;;;;;45.15;29.67;;;;;;;10.90;100.00;98727.63;1758705;79;21432;-87
2022/10/11 08:24:26;;;;;;;44.83;26.97;;;;;;;10.95;100.00;98733.09;1742710;81;21044;-86
2022/10/11 08:26:52;;;;;;;42.08;25.30;;;;;;;11.00;100.00;98742.58;1761758;79;20921;-84
2022/10/11 08:29:17;;;;;;;44.73;27.58;;;;;;;11.05;100.00;98744.52;1770729;80;20988;-85
2022/10/11 08:31:44;;;;;;;40.58;25.37;;;;;;;11.10;100.00;98749.94;1773958;78;21441;-87
2022/10/11 08:34:10;;;;;;;36.08;21.40;;;;;;;11.08;100.00;98746.69;1753846;79;21637;-86
2022/10/11 08:36:36;;;;;;;41.30;27.55;;;;;;;11.19;100.00;98743.47;1738309;80;21057;-86
2022/10/11 08:39:04;;;;;;;48.95;27.37;;;;;;;11.19;100.00;98738.86;1729675;81;21551;-87
2022/10/11 08:41:53;;;;;;;46.83;27.00;;;;;;;11.29;100.00;98743.53;1747494;80;21079;-84
2022/10/11 08:44:37;;;;;;;;;;;;;;;11.42;100.00;98743.00;1750454;81;21059;-84
2022/10/11 08:47:19;;;;;;;43.48;24.30;;;;;;;11.57;100.00;98740.88;1746650;80;20201;-84
2022/10/11 08:49:45;;;;;;;46.88;26.90;;;;;;;11.70;100.00;98736.81;1748493;80;21070;-86
2022/10/11 08:52:21;;;;;;;44.93;26.35;;;;;;;11.79;100.00;98741.47;1754271;80;20858;-86
2022/10/11 08:54:57;;;;;;;38.15;25.95;;;;;;;11.90;100.00;98740.14;1750683;81;21062;-84
2022/10/11 08:57:26;;;;;;;33.58;20.12;;;;;;;12.01;100.00;98741.22;1724030;80;21707;-85
2022/10/11 08:59:58;;;;;;;35.08;21.80;;;;;;;12.13;100.00;98736.35;1744521;81;21079;-86
2022/10/11 09:02:38;;;;;;;44.40;28.20;;;;;;;12.27;100.00;98737.95;1732168;80;20975;-85
2022/10/11 09:05:04;;;;;;;37.13;24.75;;;;;;;12.43;100.00;98740.92;1718667;81;21645;-85
2022/10/11 09:07:51;;;;;;;46.90;27.93;;;;;;;12.51;100.00;98738.20;1741091;80;21133;-87
2022/10/11 09:10:31;;;;;;;49.05;30.90;;;;;;;12.58;100.00;98744.17;1759571;80;21468;-85
2022/10/11 09:13:45;;;;;;;41.08;26.52;;;;;;;12.69;100.00;98742.23;1745458;80;21122;-86
2022/10/11 09:16:43;;;;;;;32.17;21.62;;;;;;;12.76;100.00;98752.29;1744775;80;21122;-87
2022/10/11 09:19:50;;;;;;;31.52;21.57;;;;;;;12.89;100.00;98752.23;1735302;80;21038;-85
2022/10/11 09:22:44;;;;;;;29.48;19.95;;;;;;;12.92;100.00;98759.31;1761819;79;21514;-85
2022/10/11 09:25:32;;;;;;;27.00;16.45;;;;;;;13.09;100.00;98755.45;1774838;79;21595;-87
2022/10/11 09:28:13;;;;;;;27.70;20.82;;;;;;;13.20;100.00;98761.95;1781591;79;21489;-85
2022/10/11 09:30:42;;;;;;;30.17;19.57;;;;;;;13.23;100.00;98757.86;1783200;79;21669;-85
2022/10/11 09:33:22;;;;;;;26.12;18.23;;;;;;;13.32;100.00;98756.73;1765466;80;21048;-85
2022/10/11 09:35:50;;;;;;;22.82;15.40;;;;;;;13.46;100.00;98756.39;1749567;81;21058;-86
2022/10/11 09:39:00;;;;;;;17.40;14.67;;;;;;;13.63;100.00;98754.11;1753964;79;22028;-85
2022/10/11 09:41:46;;;;;;;17.82;13.03;;;;;;;13.83;100.00;98755.34;1743272;81;21067;-85
2022/10/11 09:44:24;;;;;;;20.72;14.05;;;;;;;13.94;100.00;98760.19;1743591;81;21038;-87
2022/10/11 09:46:52;;;;;;;26.15;15.32;;;;;;;14.21;100.00;98756.98;1753756;81;21086;-85
2022/10/11 09:49:18;;;;;;;19.42;12.35;;;;;;;14.33;100.00;98754.67;1749754;79;21076;-85
2022/10/11 09:51:52;;;;;;;16.40;11.33;;;;;;;14.37;99.51;98752.20;1750116;79;21705;-85
2022/10/11 09:54:19;;;;;;;18.77;13.22;;;;;;;14.39;99.20;98756.27;1746089;79;21062;-87
2022/10/11 09:56:45;;;;;;;21.15;15.75;;;;;;;14.52;99.55;98758.08;1749376;79;21059;-87
2022/10/11 09:59:31;;;;;;;25.62;16.42;;;;;;;14.67;98.45;98750.56;1749685;79;20886;-85
2022/10/11 10:02:19;;;;;;;22.77;15.90;;;;;;;14.73;99.13;98749.97;1692482;81;21135;-85
2022/10/11 10:04:56;;;;;;;25.37;15.55;;;;;;;14.83;98.86;98758.04;1753314;81;21945;-87
2022/10/11 10:07:22;;;;;;;24.70;13.35;;;;;;;14.97;99.15;98758.73;1751899;81;21182;-87
2022/10/11 10:09:49;;;;;;;23.25;14.63;;;;;;;14.98;95.62;98752.16;1752531;81;20909;-85
2022/10/11 10:12:25;;;;;;;16.55;11.57;;;;;;;15.03;95.66;98755.62;1747216;79;21615;-87
2022/10/11 10:15:09;;;;;;;21.87;12.70;;;;;;;15.10;95.01;98758.83;1749033;79;21520;-87
2022/10/11 10:17:35;;;;;;;18.42;11.18;;;;;;;15.32;96.36;98750.10;1745926;79;21132;-86
2022/10/11 10:20:01;;;;;;;23.62;12.33;;;;;;;15.58;94.26;98749.20;1716165;81;20882;-87
2022/10/11 10:22:29;;;;;;;17.48;12.03;;;;;;;15.51;95.01;98755.58;1718611;82;20963;-87
2022/10/11 10:24:56;;;;;;;26.65;14.73;;;;;;;15.39;91.51;98753.84;1750456;79;21086;-87
2022/10/11 10:27:24;;;;;;;17.05;11.43;;;;;;;15.53;92.99;98757.45;1744445;81;21098;-86
2022/10/11 10:30:08;;;;;;;17.67;11.28;;;;;;;15.49;90.46;98756.44;1734328;81;21853;-85
2022/10/11 10:32:51;;;;;;;18.77;11.33;;;;;;;15.52;92.00;98754.47;1752657;79;20968;-87
2022/10/11 10:35:34;;;;;;;22.17;10.78;;;;;;;15.48;91.83;98763.81;1714399;81;21044;-87
2022/10/11 10:38:13;;;;;;;18.42;8.88;;;;;;;15.57;92.89;98757.14;1753891;79;21070;-87
2022/10/11 10:40:51;;;;;;;16.30;9.08;;;;;;;15.42;88.61;98754.06;1726716;79;21205;-85
2022/10/11 10:43:23;;;;;;;16.52;8.93;;;;;;;15.33;88.33;98769.47;1751286;79;21861;-87
2022/10/11 10:46:10;;;;;;;16.52;8.80;;;;;;;15.18;88.59;98767.73;1752639;79;21115;-87
2022/10/11 10:48:44;;;;;;;17.75;9.25;;;;;;;15.07;89.69;98765.42;1742977;79;21716;-86
2022/10/11 10:51:37;;;;;;;14.75;8.95;;;;;;;14.91;90.07;98770.24;1724431;80;21125;-85
2022/10/11 10:54:57;;;;;;;12.58;8.20;;;;;;;14.90;90.74;98777.61;1772224;79;21077;-87
2022/10/11 10:57:35;;;;;;;17.25;8.90;;;;;;;14.83;91.05;98766.78;1653164;84;21755;-87
2022/10/11 11:00:14;;;;;;;16.00;8.58;;;;;;;14.69;91.58;98768.00;1771026;79;20944;-87
2022/10/11 11:02:55;;;;;;;21.65;8.00;;;;;;;14.60;91.32;98775.19;1737485;79;21078;-85
2022/10/11 11:05:59;;;;;;;15.25;8.10;;;;;;;14.62;91.45;98769.73;1749206;80;21546;-85
2022/10/11 11:08:55;;;;;;;16.32;9.38;;;;;;;14.60;90.56;98776.55;1745434;80;21378;-85
2022/10/11 11:11:36;;;;;;;17.07;9.38;;;;;;;14.60;89.96;98773.27;1748530;80;21272;-87
2022/10/11 11:14:28;;;;;;;16.95;8.68;;;;;;;14.61;90.88;98781.74;1720773;81;21058;-87
2022/10/11 11:17:06;;;;;;;11.65;7.80;;;;;;;14.62;90.32;98782.00;1747355;80;21044;-87
2022/10/11 11:20:19;;;;;;;17.92;9.80;;;;;;;14.82;90.56;98776.88;1746260;80;21016;-85
2022/10/11 11:22:53;;;;;;;13.58;8.45;;;;;;;14.84;89.89;98772.49;1738859;80;21448;-87
2022/10/11 11:25:42;;;;;;;19.65;9.55;;;;;;;14.82;88.63;98780.97;1751167;80;21027;-85
2022/10/11 11:28:50;;;;;;;15.43;8.53;;;;;;;14.85;89.17;98780.38;1753004;80;21051;-85
2022/10/11 11:32:01;;;;;;;17.35;9.65;;;;;;;15.00;88.63;98786.23;1733252;81;21020;-86
2022/10/11 11:34:37;;;;;;;17.52;9.60;;;;;;;15.02;88.28;98784.58;1748332;80;21071;-85
2022/10/11 11:37:18;;;;;;;20.88;9.93;;;;;;;15.02;88.45;98788.12;1747974;80;21075;-86
2022/10/11 11:39:48;;;;;;;39.98;20.95;;;;;;;14.92;88.33;98790.41;1751001;80;21159;-87